createdAt,value
2022-12-19T00:00:14.744Z,7.93
2022-12-19T00:01:19.543Z,8.20
2022-12-19T00:02:25.429Z,8.27
2022-12-19T00:03:27.282Z,8.25
2022-12-19T00:04:30.285Z,7.97
2022-12-19T00:05:35.831Z,7.80
2022-12-19T00:06:41.342Z,8.43
2022-12-19T00:07:48.410Z,8.57
2022-12-19T00:08:52.648Z,8.68
2022-12-19T00:09:54.223Z,7.93
2022-12-19T00:10:59.448Z,8.55
2022-12-19T00:12:02.449Z,8.38
2022-12-19T00:13:05.040Z,8.52
2022-12-19T00:14:07.683Z,9.63
2022-12-19T00:15:10.770Z,8.77
2022-12-19T00:16:14.337Z,9.18
2022-12-19T00:17:18.887Z,9.88
2022-12-19T00:18:20.611Z,10.65
2022-12-19T00:19:24.749Z,11.15
2022-12-19T00:20:26.383Z,11.60
2022-12-19T00:21:30.740Z,13.15
2022-12-19T00:22:32.915Z,12.32
2022-12-19T00:23:36.135Z,11.90
2022-12-19T00:24:37.954Z,11.25
2022-12-19T00:25:40.527Z,12.10
2022-12-19T00:26:43.153Z,11.25
2022-12-19T00:27:47.233Z,12.48
2022-12-19T00:28:50.860Z,11.20
2022-12-19T00:29:53.428Z,12.55
2022-12-19T00:30:55.630Z,12.20
2022-12-19T00:31:59.203Z,12.00
2022-12-19T00:33:02.616Z,12.10
2022-12-19T00:34:05.477Z,11.20
2022-12-19T00:35:07.504Z,11.35
2022-12-19T00:36:14.457Z,11.25
2022-12-19T00:37:18.512Z,10.95
2022-12-19T00:38:21.104Z,11.48
2022-12-19T00:39:22.924Z,11.15
2022-12-19T00:40:25.456Z,10.65
2022-12-19T00:41:30.415Z,10.57
2022-12-19T00:42:33.121Z,10.73
2022-12-19T00:43:36.519Z,11.48
2022-12-19T00:44:39.128Z,10.98
2022-12-19T00:45:40.833Z,11.27
2022-12-19T00:46:51.035Z,10.82
2022-12-19T00:47:54.843Z,11.10
2022-12-19T00:48:57.405Z,10.48
2022-12-19T00:49:59.016Z,10.52
2022-12-19T00:51:02.219Z,10.73
2022-12-19T00:52:04.364Z,10.07
2022-12-19T00:53:06.908Z,9.50
2022-12-19T00:54:09.890Z,10.65
2022-12-19T00:55:18.783Z,9.25
2022-12-19T00:56:22.658Z,9.07
2022-12-19T00:57:25.224Z,10.07
2022-12-19T00:58:27.131Z,10.60
2022-12-19T00:59:31.251Z,9.05
2022-12-19T01:00:33.143Z,10.38
2022-12-19T01:01:38.844Z,9.40
2022-12-19T01:02:40.723Z,9.40
2022-12-19T01:03:58.011Z,9.27
2022-12-19T01:05:06.005Z,9.10
2022-12-19T01:06:09.234Z,9.60
2022-12-19T01:07:11.057Z,9.07
2022-12-19T01:08:13.694Z,9.48
2022-12-19T01:09:15.734Z,9.50
2022-12-19T01:10:18.383Z,9.57
2022-12-19T01:11:40.853Z,9.52
2022-12-19T01:12:48.380Z,9.70
2022-12-19T01:13:51.034Z,8.80
2022-12-19T01:15:02.836Z,9.38
2022-12-19T01:16:10.210Z,9.18
2022-12-19T01:17:14.769Z,8.85
2022-12-19T01:18:17.688Z,9.18
2022-12-19T01:19:19.632Z,9.38
2022-12-19T01:20:29.323Z,10.23
2022-12-19T01:21:31.506Z,6.82
2022-12-19T01:22:34.111Z,8.68
2022-12-19T01:23:36.686Z,8.88
2022-12-19T01:24:39.571Z,8.82
2022-12-19T01:25:43.159Z,8.50
2022-12-19T01:26:47.553Z,8.80
2022-12-19T01:27:50.170Z,8.25
2022-12-19T01:28:51.805Z,8.98
2022-12-19T01:29:56.024Z,9.82
2022-12-19T01:30:57.650Z,8.98
2022-12-19T01:32:00.422Z,8.23
2022-12-19T01:33:02.137Z,8.10
2022-12-19T01:34:04.945Z,8.57
2022-12-19T01:35:09.204Z,8.48
2022-12-19T01:36:24.411Z,8.43
2022-12-19T01:37:26.079Z,8.20
2022-12-19T01:38:28.624Z,8.57
2022-12-19T01:39:30.415Z,9.15
2022-12-19T01:40:35.885Z,9.10
2022-12-19T01:41:37.780Z,8.98
2022-12-19T01:42:40.779Z,7.78
2022-12-19T01:43:57.036Z,8.73
2022-12-19T01:45:20.948Z,9.20
2022-12-19T01:46:28.440Z,8.55
2022-12-19T01:47:32.866Z,9.07
2022-12-19T01:48:39.594Z,9.35
2022-12-19T01:49:41.393Z,8.63
2022-12-19T01:51:00.668Z,9.15
2022-12-19T01:52:10.312Z,6.95
2022-12-19T01:53:15.958Z,8.98
2022-12-19T01:54:23.526Z,9.25
2022-12-19T01:55:25.682Z,9.20
2022-12-19T01:56:32.700Z,9.18
2022-12-19T01:57:34.881Z,8.82
2022-12-19T01:58:46.394Z,9.35
2022-12-19T01:59:51.583Z,8.85
2022-12-19T02:00:55.873Z,8.90
2022-12-19T02:02:03.219Z,8.30
2022-12-19T02:03:12.418Z,8.38
2022-12-19T02:04:15.059Z,9.05
2022-12-19T02:05:17.721Z,8.65
2022-12-19T02:06:19.858Z,8.02
2022-12-19T02:07:24.639Z,9.18
2022-12-19T02:08:27.605Z,8.80
2022-12-19T02:09:32.421Z,8.93
2022-12-19T02:10:34.354Z,9.18
2022-12-19T02:11:37.124Z,8.85
2022-12-19T02:12:43.105Z,8.90
2022-12-19T02:13:48.015Z,9.10
2022-12-19T02:14:49.924Z,8.93
2022-12-19T02:16:02.004Z,9.20
2022-12-19T02:17:11.500Z,9.10
2022-12-19T02:18:22.447Z,9.32
2022-12-19T02:19:48.363Z,8.50
2022-12-19T02:21:14.376Z,9.35
2022-12-19T02:22:26.826Z,8.68
2022-12-19T02:23:59.536Z,8.25
2022-12-19T02:25:33.770Z,8.40
2022-12-19T02:26:52.479Z,8.20
2022-12-19T02:28:14.566Z,9.05
2022-12-19T02:29:34.448Z,8.52
2022-12-19T02:30:46.478Z,8.32
2022-12-19T02:31:52.377Z,8.68
2022-12-19T02:33:02.862Z,9.63
2022-12-19T02:34:14.303Z,7.55
2022-12-19T02:35:25.539Z,9.35
2022-12-19T02:36:33.995Z,8.68
2022-12-19T02:37:49.628Z,8.68
2022-12-19T02:38:59.231Z,8.43
2022-12-19T02:40:06.486Z,7.95
2022-12-19T02:41:13.988Z,7.82
2022-12-19T02:42:28.428Z,8.25
2022-12-19T02:43:40.361Z,8.25
2022-12-19T02:44:46.111Z,8.40
2022-12-19T02:45:52.198Z,8.52
2022-12-19T02:46:54.536Z,8.60
2022-12-19T02:47:58.024Z,8.07
2022-12-19T02:49:01.398Z,9.55
2022-12-19T02:50:05.177Z,8.45
2022-12-19T02:51:06.818Z,8.18
2022-12-19T02:52:11.059Z,7.88
2022-12-19T02:53:15.025Z,9.00
2022-12-19T02:54:17.999Z,8.63
2022-12-19T02:55:23.776Z,8.48
2022-12-19T02:56:41.188Z,8.68
2022-12-19T02:57:59.636Z,8.13
2022-12-19T02:59:21.621Z,8.63
2022-12-19T03:00:25.560Z,8.52
2022-12-19T03:01:42.321Z,9.18
2022-12-19T03:03:00.337Z,9.98
2022-12-19T03:04:17.185Z,8.50
2022-12-19T03:05:26.460Z,8.63
2022-12-19T03:06:36.631Z,7.15
2022-12-19T03:07:46.245Z,7.47
2022-12-19T03:08:56.506Z,7.57
2022-12-19T03:10:07.853Z,5.60
2022-12-19T03:11:13.342Z,7.65
2022-12-19T03:12:26.731Z,8.05
2022-12-19T03:13:33.183Z,8.40
2022-12-19T03:14:38.970Z,8.52
2022-12-19T03:15:42.833Z,8.07
2022-12-19T03:16:45.964Z,7.97
2022-12-19T03:17:49.512Z,7.45
2022-12-19T03:18:51.753Z,7.07
2022-12-19T03:19:54.364Z,8.75
2022-12-19T03:21:04.967Z,8.35
2022-12-19T03:22:10.716Z,6.72
2022-12-19T03:23:13.478Z,7.65
2022-12-19T03:24:18.520Z,8.30
2022-12-19T03:25:22.474Z,7.80
2022-12-19T03:26:29.636Z,8.20
2022-12-19T03:27:36.334Z,7.75
2022-12-19T03:28:44.223Z,8.30
2022-12-19T03:29:52.171Z,8.32
2022-12-19T03:30:56.267Z,7.95
2022-12-19T03:32:03.152Z,8.50
2022-12-19T03:33:06.049Z,8.23
2022-12-19T03:34:12.348Z,7.95
2022-12-19T03:35:19.552Z,8.13
2022-12-19T03:36:26.046Z,8.82
2022-12-19T03:37:32.801Z,7.95
2022-12-19T03:38:35.720Z,8.30
2022-12-19T03:39:41.741Z,7.65
2022-12-19T03:40:46.011Z,7.75
2022-12-19T03:42:07.904Z,8.40
2022-12-19T03:43:14.531Z,8.30
2022-12-19T03:44:19.218Z,7.72
2022-12-19T03:45:30.702Z,7.93
2022-12-19T03:46:35.512Z,7.28
2022-12-19T03:47:42.943Z,7.55
2022-12-19T03:48:46.374Z,7.72
2022-12-19T03:49:49.797Z,7.90
2022-12-19T03:50:58.004Z,6.97
2022-12-19T03:52:06.215Z,7.90
2022-12-19T03:53:19.407Z,7.30
2022-12-19T03:54:26.850Z,8.30
2022-12-19T03:55:36.430Z,6.85
2022-12-19T03:56:46.767Z,7.07
2022-12-19T03:57:58.660Z,7.50
2022-12-19T03:59:07.691Z,6.47
2022-12-19T04:00:13.406Z,7.45
2022-12-19T04:01:21.637Z,7.80
2022-12-19T04:02:27.075Z,6.85
2022-12-19T04:03:32.881Z,7.15
2022-12-19T04:04:38.155Z,6.20
2022-12-19T04:05:42.880Z,7.47
2022-12-19T04:06:45.846Z,7.50
2022-12-19T04:07:50.270Z,7.78
2022-12-19T04:08:52.223Z,6.70
2022-12-19T04:10:00.555Z,7.03
2022-12-19T04:11:09.797Z,7.20
2022-12-19T04:12:16.917Z,7.07
2022-12-19T04:13:27.760Z,6.68
2022-12-19T04:15:58.501Z,6.68
2022-12-19T04:17:08.711Z,6.60
2022-12-19T04:18:14.681Z,7.05
2022-12-19T04:19:21.504Z,7.20
2022-12-19T04:20:28.034Z,7.05
2022-12-19T04:21:33.858Z,7.18
2022-12-19T04:22:40.975Z,7.13
2022-12-19T04:23:47.853Z,6.72
2022-12-19T04:24:58.399Z,7.00
2022-12-19T04:26:03.780Z,5.15
2022-12-19T04:27:09.481Z,7.28
2022-12-19T04:28:17.480Z,7.15
2022-12-19T04:29:22.527Z,8.07
2022-12-19T04:30:24.403Z,7.70
2022-12-19T04:31:27.265Z,7.43
2022-12-19T04:32:34.718Z,7.75
2022-12-19T04:33:37.436Z,7.20
2022-12-19T04:34:43.632Z,7.40
2022-12-19T04:35:52.243Z,7.78
2022-12-19T04:36:54.958Z,7.80
2022-12-19T04:37:59.174Z,7.47
2022-12-19T04:39:01.984Z,7.47
2022-12-19T04:40:04.351Z,7.10
2022-12-19T04:41:07.344Z,7.30
2022-12-19T04:42:09.007Z,7.80
2022-12-19T04:43:11.774Z,7.95
2022-12-19T04:44:13.456Z,7.30
2022-12-19T04:45:17.192Z,7.90
2022-12-19T04:46:19.041Z,7.70
2022-12-19T04:47:21.710Z,7.68
2022-12-19T04:48:23.407Z,8.00
2022-12-19T04:49:26.229Z,7.80
2022-12-19T04:50:29.351Z,7.47
2022-12-19T04:51:35.522Z,7.85
2022-12-19T04:52:37.239Z,8.00
2022-12-19T04:53:42.766Z,7.38
2022-12-19T04:54:46.703Z,7.97
2022-12-19T04:55:49.643Z,7.15
2022-12-19T04:56:52.729Z,8.10
2022-12-19T04:57:55.483Z,7.95
2022-12-19T04:58:57.959Z,7.78
2022-12-19T05:00:00.662Z,7.25
2022-12-19T05:01:03.077Z,8.40
2022-12-19T05:02:08.754Z,7.65
2022-12-19T05:03:10.619Z,8.02
2022-12-19T05:04:13.388Z,8.85
2022-12-19T05:05:15.482Z,8.07
2022-12-19T05:06:20.414Z,8.38
2022-12-19T05:07:22.047Z,7.97
2022-12-19T05:08:24.720Z,8.25
2022-12-19T05:09:26.489Z,7.85
2022-12-19T05:10:29.086Z,8.15
2022-12-19T05:11:31.011Z,7.93
2022-12-19T05:12:33.835Z,7.88
2022-12-19T05:13:35.922Z,8.02
2022-12-19T05:14:40.987Z,7.95
2022-12-19T05:15:42.652Z,8.23
2022-12-19T05:16:45.624Z,8.15
2022-12-19T05:17:47.279Z,8.23
2022-12-19T05:18:49.962Z,7.72
2022-12-19T05:19:51.666Z,8.07
2022-12-19T05:20:54.611Z,8.27
2022-12-19T05:21:58.783Z,7.88
2022-12-19T05:23:05.022Z,8.15
2022-12-19T05:24:08.704Z,7.32
2022-12-19T05:25:11.353Z,7.20
2022-12-19T05:26:13.316Z,7.88
2022-12-19T05:27:15.986Z,7.93
2022-12-19T05:28:18.317Z,7.95
2022-12-19T05:29:21.175Z,7.78
2022-12-19T05:30:24.428Z,7.13
2022-12-19T05:31:27.087Z,8.02
2022-12-19T05:32:30.389Z,7.95
2022-12-19T05:33:33.119Z,7.07
2022-12-19T05:34:34.900Z,7.82
2022-12-19T05:35:38.250Z,7.30
2022-12-19T05:36:40.108Z,7.85
2022-12-19T05:37:44.304Z,7.70
2022-12-19T05:38:46.088Z,7.80
2022-12-19T05:39:48.809Z,7.78
2022-12-19T05:40:50.438Z,7.68
2022-12-19T05:41:53.123Z,8.27
2022-12-19T05:42:54.769Z,7.47
2022-12-19T05:43:57.763Z,8.45
2022-12-19T05:44:59.436Z,7.75
2022-12-19T05:46:02.138Z,8.20
2022-12-19T05:47:03.976Z,8.30
2022-12-19T05:48:07.258Z,8.65
2022-12-19T05:49:13.095Z,7.75
2022-12-19T05:50:16.308Z,7.57
2022-12-19T05:51:18.124Z,8.15
2022-12-19T05:52:20.900Z,7.72
2022-12-19T05:53:26.082Z,7.95
2022-12-19T05:54:29.167Z,7.88
2022-12-19T05:55:31.673Z,8.13
2022-12-19T05:56:34.313Z,8.02
2022-12-19T05:57:36.521Z,8.02
2022-12-19T05:58:41.226Z,7.50
2022-12-19T05:59:43.070Z,7.82
2022-12-19T06:00:45.856Z,7.90
2022-12-19T06:01:47.599Z,8.30
2022-12-19T06:03:01.932Z,8.23
2022-12-19T06:04:04.282Z,8.15
2022-12-19T06:05:07.652Z,8.52
2022-12-19T06:06:11.723Z,8.68
2022-12-19T06:07:19.216Z,8.07
2022-12-19T06:08:23.893Z,8.02
2022-12-19T06:09:27.000Z,8.68
2022-12-19T06:10:28.841Z,8.07
2022-12-19T06:11:31.508Z,8.48
2022-12-19T06:12:33.273Z,8.20
2022-12-19T06:13:37.091Z,8.15
2022-12-19T06:14:38.879Z,9.00
2022-12-19T06:15:42.177Z,7.93
2022-12-19T06:16:44.110Z,8.60
2022-12-19T06:17:46.901Z,8.05
2022-12-19T06:18:48.842Z,9.23
2022-12-19T06:19:51.672Z,9.10
2022-12-19T06:20:58.317Z,8.27
2022-12-19T06:22:01.140Z,9.35
2022-12-19T06:23:02.844Z,8.70
2022-12-19T06:24:08.010Z,8.70
2022-12-19T06:25:10.052Z,9.20
2022-12-19T06:26:19.019Z,10.30
2022-12-19T06:27:20.962Z,9.35
2022-12-19T06:28:23.648Z,10.05
2022-12-19T06:29:25.474Z,9.23
2022-12-19T06:30:30.664Z,10.18
2022-12-19T06:31:33.408Z,10.15
2022-12-19T06:32:38.188Z,9.48
2022-12-19T06:33:41.850Z,9.05
2022-12-19T06:36:09.593Z,9.48
2022-12-19T06:37:12.116Z,8.88
2022-12-19T06:38:14.894Z,8.82
2022-12-19T06:39:19.009Z,9.75
2022-12-19T06:40:35.718Z,8.93
2022-12-19T06:42:07.409Z,9.00
2022-12-19T06:43:12.100Z,9.30
2022-12-19T06:44:17.179Z,9.60
2022-12-19T06:45:18.804Z,8.90
2022-12-19T06:46:24.537Z,9.95
2022-12-19T06:47:26.285Z,9.98
2022-12-19T06:48:29.383Z,8.85
2022-12-19T06:49:31.253Z,9.63
2022-12-19T06:50:35.961Z,10.00
2022-12-19T06:51:41.652Z,9.00
2022-12-19T06:52:43.451Z,9.68
2022-12-19T06:53:46.244Z,9.73
2022-12-19T06:54:50.343Z,10.07
2022-12-19T06:55:55.694Z,9.25
2022-12-19T06:56:58.492Z,9.98
2022-12-19T06:58:02.456Z,9.82
2022-12-19T06:59:05.314Z,10.50
2022-12-19T07:00:09.994Z,10.32
2022-12-19T07:01:19.076Z,9.77
2022-12-19T07:02:28.470Z,9.95
2022-12-19T07:03:37.255Z,9.90
2022-12-19T07:04:42.227Z,9.35
2022-12-19T07:05:45.245Z,10.48
2022-12-19T07:06:49.360Z,9.98
2022-12-19T07:07:52.134Z,10.85
2022-12-19T07:08:54.015Z,10.38
2022-12-19T07:09:58.125Z,10.38
2022-12-19T07:11:01.260Z,10.77
2022-12-19T07:12:04.656Z,10.48
2022-12-19T07:13:06.272Z,10.77
2022-12-19T07:14:08.990Z,10.18
2022-12-19T07:15:19.529Z,11.00
2022-12-19T07:16:21.203Z,11.05
2022-12-19T07:17:25.684Z,10.13
2022-12-19T07:18:30.343Z,11.05
2022-12-19T07:19:33.983Z,10.13
2022-12-19T07:20:43.350Z,9.82
2022-12-19T07:21:50.992Z,10.45
2022-12-19T07:22:53.921Z,9.55
2022-12-19T07:23:56.721Z,10.10
2022-12-19T07:25:01.237Z,10.45
2022-12-19T07:26:04.830Z,11.27
2022-12-19T07:27:09.068Z,10.98
2022-12-19T07:28:11.940Z,11.00
2022-12-19T07:29:15.937Z,10.45
2022-12-19T07:30:18.638Z,10.38
2022-12-19T07:31:20.315Z,10.65
2022-12-19T07:32:23.300Z,9.95
2022-12-19T07:33:25.074Z,10.68
2022-12-19T07:34:27.754Z,10.52
2022-12-19T07:35:30.879Z,10.30
2022-12-19T07:36:33.581Z,10.50
2022-12-19T07:37:36.889Z,11.35
2022-12-19T07:38:39.502Z,11.38
2022-12-19T07:39:42.322Z,11.32
2022-12-19T07:40:46.621Z,11.18
2022-12-19T07:41:48.310Z,11.13
2022-12-19T07:42:51.071Z,11.30
2022-12-19T07:43:53.934Z,11.18
2022-12-19T07:44:55.649Z,11.35
2022-12-19T07:45:58.369Z,12.18
2022-12-19T07:47:01.325Z,11.70
2022-12-19T07:48:04.201Z,11.82
2022-12-19T07:49:07.180Z,10.70
2022-12-19T07:50:09.729Z,11.48
2022-12-19T07:51:12.639Z,11.50
2022-12-19T07:52:15.574Z,11.38
2022-12-19T07:53:17.338Z,11.35
2022-12-19T07:54:21.446Z,11.57
2022-12-19T07:55:23.156Z,11.35
2022-12-19T07:56:27.621Z,11.73
2022-12-19T07:57:29.427Z,11.85
2022-12-19T07:58:32.168Z,11.07
2022-12-19T07:59:38.797Z,11.57
2022-12-19T08:00:42.259Z,11.90
2022-12-19T08:01:44.535Z,11.80
2022-12-19T08:02:48.088Z,12.05
2022-12-19T08:03:51.191Z,12.27
2022-12-19T08:04:54.119Z,11.65
2022-12-19T08:06:00.419Z,13.05
2022-12-19T08:07:03.480Z,12.70
2022-12-19T08:08:05.472Z,13.38
2022-12-19T08:09:08.146Z,12.60
2022-12-19T08:10:12.646Z,12.63
2022-12-19T08:11:17.280Z,12.50
2022-12-19T08:12:21.245Z,12.23
2022-12-19T08:13:22.991Z,11.93
2022-12-19T08:14:25.690Z,12.63
2022-12-19T08:15:28.296Z,13.18
2022-12-19T08:16:31.147Z,13.45
2022-12-19T08:17:33.798Z,12.52
2022-12-19T08:18:36.485Z,12.57
2022-12-19T08:19:38.178Z,12.30
2022-12-19T08:20:40.840Z,12.20
2022-12-19T08:21:43.469Z,12.40
2022-12-19T08:22:46.397Z,13.25
2022-12-19T08:23:48.037Z,13.00
2022-12-19T08:24:50.722Z,14.20
2022-12-19T08:26:00.277Z,12.07
2022-12-19T08:27:03.036Z,13.45
2022-12-19T08:28:07.367Z,12.63
2022-12-19T08:29:09.313Z,12.25
2022-12-19T08:30:14.091Z,12.77
2022-12-19T08:31:18.767Z,12.25
2022-12-19T08:32:22.006Z,13.00
2022-12-19T08:33:24.717Z,12.73
2022-12-19T08:34:27.027Z,12.88
2022-12-19T08:35:29.778Z,12.77
2022-12-19T08:36:32.805Z,12.07
2022-12-19T08:37:35.447Z,13.18
2022-12-19T08:38:37.344Z,11.88
2022-12-19T08:39:41.110Z,13.52
2022-12-19T08:40:47.374Z,13.43
2022-12-19T08:41:49.289Z,12.80
2022-12-19T08:42:51.963Z,13.65
2022-12-19T08:43:54.969Z,13.75
2022-12-19T08:44:57.728Z,12.77
2022-12-19T08:46:00.917Z,13.38
2022-12-19T08:47:03.775Z,13.65
2022-12-19T08:48:07.722Z,13.43
2022-12-19T08:49:10.334Z,15.00
2022-12-19T08:50:14.271Z,13.30
2022-12-19T08:51:18.307Z,12.82
2022-12-19T08:52:21.056Z,13.35
2022-12-19T08:53:26.443Z,13.63
2022-12-19T08:54:29.652Z,13.70
2022-12-19T08:55:32.319Z,13.65
2022-12-19T08:56:33.933Z,14.15
2022-12-19T08:57:36.622Z,13.82
2022-12-19T08:58:39.534Z,14.90
2022-12-19T08:59:43.490Z,14.40
2022-12-19T09:00:52.095Z,15.23
2022-12-19T09:01:57.562Z,13.93
2022-12-19T09:03:00.625Z,15.07
2022-12-19T09:05:09.259Z,13.77
2022-12-19T09:06:01.831Z,13.70
2022-12-19T09:06:48.647Z,13.48
2022-12-19T09:07:51.207Z,14.23
2022-12-19T09:08:53.838Z,13.93
2022-12-19T09:10:03.156Z,13.38
2022-12-19T09:11:08.174Z,14.50
2022-12-19T09:12:10.891Z,14.65
2022-12-19T09:13:13.465Z,14.13
2022-12-19T09:14:20.852Z,13.60
2022-12-19T09:15:25.724Z,13.50
2022-12-19T09:16:28.652Z,14.32
2022-12-19T09:17:31.249Z,14.00
2022-12-19T09:18:34.873Z,14.05
2022-12-19T09:19:37.414Z,14.02
2022-12-19T09:20:39.773Z,12.82
2022-12-19T09:21:42.333Z,14.43
2022-12-19T09:22:44.930Z,14.05
2022-12-19T09:23:49.722Z,15.57
2022-12-19T09:24:52.361Z,14.00
2022-12-19T09:25:54.046Z,15.30
2022-12-19T09:26:56.706Z,13.88
2022-12-19T09:28:26.816Z,14.40
2022-12-19T09:29:22.470Z,13.52
2022-12-19T09:30:26.566Z,12.88
2022-12-19T09:31:30.049Z,13.93
2022-12-19T09:32:32.691Z,13.93
2022-12-19T09:33:42.956Z,14.68
2022-12-19T09:35:50.056Z,13.88
2022-12-19T09:36:53.877Z,15.57
2022-12-19T09:38:00.035Z,15.57
2022-12-19T09:39:06.232Z,15.25
2022-12-19T09:40:16.789Z,14.27
2022-12-19T09:41:57.062Z,11.23
2022-12-19T09:43:12.149Z,13.82
2022-12-19T09:44:30.703Z,13.45
2022-12-19T09:45:41.764Z,13.13
2022-12-19T09:46:49.382Z,13.05
2022-12-19T09:47:57.963Z,13.45
2022-12-19T09:49:02.954Z,13.23
2022-12-19T09:50:22.411Z,13.13
2022-12-19T09:51:35.311Z,13.07
2022-12-19T09:52:41.034Z,12.85
2022-12-19T09:53:59.489Z,12.35
2022-12-19T09:55:05.736Z,12.88
2022-12-19T09:56:15.828Z,13.20
2022-12-19T09:57:24.139Z,12.75
2022-12-19T09:58:38.640Z,12.02
2022-12-19T09:59:49.683Z,12.05
2022-12-19T10:01:00.185Z,13.68
2022-12-19T10:02:15.899Z,10.88
2022-12-19T10:03:25.213Z,13.13
2022-12-19T10:04:30.878Z,13.65
2022-12-19T10:07:11.441Z,12.68
2022-12-19T10:07:22.103Z,12.15
2022-12-19T10:08:32.625Z,12.73
2022-12-19T10:11:08.251Z,11.85
2022-12-19T10:12:41.396Z,13.00
2022-12-19T10:12:51.147Z,12.93
2022-12-19T10:14:17.446Z,11.93
2022-12-19T10:15:27.014Z,13.45
2022-12-19T10:17:01.739Z,12.15
2022-12-19T10:18:22.058Z,11.02
2022-12-19T10:19:34.759Z,13.07
2022-12-19T10:20:42.429Z,12.90
2022-12-19T10:22:18.114Z,11.85
2022-12-19T10:23:36.502Z,13.15
2022-12-19T10:25:08.103Z,12.52
2022-12-19T10:26:19.423Z,12.23
2022-12-19T10:27:35.162Z,9.85
2022-12-19T10:28:53.177Z,13.50
2022-12-19T10:30:04.178Z,11.93
2022-12-19T10:31:21.573Z,13.07
2022-12-19T10:32:36.616Z,12.93
2022-12-19T10:33:45.975Z,12.95
2022-12-19T10:34:50.753Z,12.48
2022-12-19T10:36:02.081Z,12.45
2022-12-19T10:37:23.108Z,12.45
2022-12-19T10:38:38.359Z,13.18
2022-12-19T10:39:51.967Z,10.40
2022-12-19T10:41:07.469Z,13.07
2022-12-19T10:42:16.857Z,14.00
2022-12-19T10:43:33.532Z,12.57
2022-12-19T10:44:41.149Z,11.65
2022-12-19T10:45:47.072Z,12.75
2022-12-19T10:46:51.526Z,13.13
2022-12-19T10:47:59.147Z,12.80
2022-12-19T10:49:02.340Z,11.52
2022-12-19T10:50:09.677Z,12.10
2022-12-19T10:51:14.564Z,12.90
2022-12-19T10:52:53.405Z,12.40
2022-12-19T10:53:56.997Z,12.13
2022-12-19T10:54:59.787Z,12.05
2022-12-19T10:56:12.416Z,11.77
2022-12-19T10:57:25.567Z,11.88
2022-12-19T10:58:33.297Z,12.20
2022-12-19T10:59:35.871Z,13.90
2022-12-19T11:00:38.601Z,13.00
2022-12-19T11:01:41.635Z,12.60
2022-12-19T11:02:45.611Z,11.27
2022-12-19T11:03:52.720Z,13.15
2022-12-19T11:04:55.763Z,12.80
2022-12-19T11:06:02.572Z,13.82
2022-12-19T11:07:21.617Z,13.68
2022-12-19T11:08:27.289Z,12.65
2022-12-19T11:09:31.947Z,12.60
2022-12-19T11:13:57.337Z,13.02
2022-12-19T11:15:23.513Z,12.07
2022-12-19T11:19:01.819Z,13.25
2022-12-19T11:19:44.229Z,13.35
2022-12-19T11:24:38.743Z,12.90
2022-12-19T11:26:15.794Z,12.82
2022-12-19T11:29:19.609Z,12.70
2022-12-19T11:29:31.263Z,11.45
2022-12-19T11:29:38.940Z,12.93
2022-12-19T11:29:39.898Z,13.35
2022-12-19T11:30:35.302Z,12.10
2022-12-19T11:30:35.458Z,12.35
2022-12-19T11:30:43.753Z,12.50
2022-12-19T11:32:48.661Z,13.50
2022-12-19T11:33:54.655Z,12.27
2022-12-19T11:35:03.012Z,12.10
2022-12-19T11:36:07.111Z,12.45
2022-12-19T11:37:19.180Z,12.07
2022-12-19T11:38:33.632Z,12.00
2022-12-19T11:39:45.520Z,12.18
2022-12-19T11:40:51.540Z,12.13
2022-12-19T11:42:01.706Z,13.20
2022-12-19T11:44:37.272Z,12.10
2022-12-19T11:45:52.603Z,13.30
2022-12-19T11:47:00.603Z,11.73
2022-12-19T11:48:10.487Z,11.48
2022-12-19T11:49:26.618Z,12.27
2022-12-19T11:50:33.113Z,13.00
2022-12-19T11:51:40.056Z,12.13
2022-12-19T11:53:07.766Z,12.00
2022-12-19T11:54:18.896Z,11.40
2022-12-19T11:55:27.015Z,11.70
2022-12-19T11:56:30.296Z,11.35
2022-12-19T11:57:32.257Z,11.10
2022-12-19T11:58:36.076Z,11.65
2022-12-19T11:59:41.169Z,11.43
2022-12-19T12:00:51.711Z,12.07
2022-12-19T12:02:10.231Z,9.85
2022-12-19T12:03:38.180Z,12.10
2022-12-19T12:05:10.709Z,11.73
2022-12-19T12:06:17.236Z,10.80
2022-12-19T12:07:27.582Z,11.05
2022-12-19T12:12:21.610Z,11.43
2022-12-19T12:14:02.040Z,11.57
2022-12-19T12:18:47.839Z,10.25
2022-12-19T12:20:40.163Z,8.90
2022-12-19T12:25:07.011Z,9.50
2022-12-19T12:28:57.232Z,10.23
2022-12-19T12:29:03.259Z,9.98
2022-12-19T12:31:23.085Z,11.13
2022-12-19T12:31:23.332Z,11.15
2022-12-19T12:31:29.544Z,10.07
2022-12-19T12:31:40.355Z,10.23
2022-12-19T12:31:41.757Z,9.57
2022-12-19T12:32:02.267Z,10.60
2022-12-19T12:32:06.517Z,10.13
2022-12-19T12:35:05.927Z,10.30
2022-12-19T12:35:46.560Z,10.10
2022-12-19T12:35:51.348Z,10.20
2022-12-19T12:38:59.810Z,9.73
2022-12-19T12:40:22.988Z,9.82
2022-12-19T12:41:58.643Z,10.68
2022-12-19T12:43:13.978Z,10.63
2022-12-19T12:44:17.205Z,10.70
2022-12-19T12:45:32.309Z,10.57
2022-12-19T12:46:40.864Z,10.32
2022-12-19T12:47:47.439Z,10.77
2022-12-19T12:48:55.445Z,10.55
2022-12-19T12:50:02.225Z,10.55
2022-12-19T12:51:06.934Z,11.45
2022-12-19T12:52:17.110Z,10.77
2022-12-19T12:53:25.643Z,10.90
2022-12-19T12:54:37.781Z,11.20
2022-12-19T12:55:43.041Z,10.55
2022-12-19T12:56:48.532Z,10.98
2022-12-19T12:57:51.990Z,10.85
2022-12-19T12:59:21.641Z,11.23
2022-12-19T13:00:27.665Z,10.50
2022-12-19T13:01:35.665Z,10.70
2022-12-19T13:02:39.052Z,9.98
2022-12-19T13:03:43.559Z,11.15
2022-12-19T13:05:00.626Z,10.82
2022-12-19T13:06:07.987Z,11.23
2022-12-19T13:07:29.752Z,11.15
2022-12-19T13:08:35.671Z,10.35
2022-12-19T13:09:38.534Z,10.27
2022-12-19T13:10:53.956Z,10.35
2022-12-19T13:12:20.928Z,10.70
2022-12-19T13:13:54.758Z,11.05
2022-12-19T13:15:20.253Z,10.63
2022-12-19T13:16:49.749Z,10.35
2022-12-19T13:18:09.373Z,11.48
2022-12-19T13:19:21.002Z,11.30
2022-12-19T13:20:48.629Z,10.23
2022-12-19T13:22:19.811Z,10.55
2022-12-19T13:24:26.693Z,9.95
2022-12-19T13:25:52.026Z,9.93
2022-12-19T13:26:54.670Z,10.35
2022-12-19T13:27:59.117Z,11.38
2022-12-19T13:29:27.103Z,11.55
2022-12-19T13:30:50.092Z,10.27
2022-12-19T13:32:13.453Z,10.75
2022-12-19T13:33:16.885Z,10.77
2022-12-19T13:34:20.258Z,10.82
2022-12-19T13:39:35.869Z,10.80
2022-12-19T13:40:01.314Z,10.20
2022-12-19T13:40:01.588Z,9.45
2022-12-19T13:40:32.683Z,10.70
2022-12-19T13:42:01.292Z,9.95
2022-12-19T13:43:33.166Z,9.45
2022-12-19T13:44:40.857Z,10.63
2022-12-19T13:45:50.757Z,12.07
2022-12-19T13:46:56.111Z,12.23
2022-12-19T13:48:02.125Z,11.05
2022-12-19T13:49:09.190Z,11.57
2022-12-19T13:50:24.688Z,13.65
2022-12-19T13:51:41.211Z,10.88
2022-12-19T13:52:49.407Z,11.00
2022-12-19T13:53:59.351Z,10.68
2022-12-19T13:55:02.742Z,9.45
2022-12-19T13:56:12.498Z,11.27
2022-12-19T13:57:22.462Z,11.80
2022-12-19T13:58:30.623Z,8.20
2022-12-19T13:59:38.871Z,11.60
2022-12-19T14:00:51.939Z,11.27
2022-12-19T14:01:57.160Z,12.30
2022-12-19T14:02:59.505Z,11.00
2022-12-19T14:04:07.991Z,11.07
2022-12-19T14:05:34.162Z,10.60
2022-12-19T14:06:47.173Z,10.35
2022-12-19T14:07:50.068Z,10.80
2022-12-19T14:09:37.323Z,10.60
2022-12-19T14:11:34.574Z,10.57
2022-12-19T14:13:42.558Z,10.65
2022-12-19T14:13:51.007Z,10.38
2022-12-19T14:15:14.087Z,10.02
2022-12-19T14:16:19.768Z,10.95
2022-12-19T14:17:23.734Z,11.20
2022-12-19T14:18:44.629Z,10.90
2022-12-19T14:19:51.451Z,9.80
2022-12-19T14:22:10.785Z,11.75
2022-12-19T14:22:38.225Z,10.80
2022-12-19T14:23:44.164Z,10.50
2022-12-19T14:24:55.089Z,10.25
2022-12-19T14:28:24.150Z,11.00
2022-12-19T14:28:26.982Z,10.73
2022-12-19T14:29:32.039Z,10.90
2022-12-19T14:30:50.380Z,10.40
2022-12-19T14:32:23.991Z,10.02
2022-12-19T14:33:46.019Z,10.55
2022-12-19T14:36:04.843Z,10.50
2022-12-19T14:36:15.968Z,10.77
2022-12-19T14:37:37.154Z,10.70
2022-12-19T14:39:22.476Z,10.30
2022-12-19T14:40:25.567Z,10.77
2022-12-19T14:42:00.974Z,10.30
2022-12-19T14:43:57.894Z,10.68
2022-12-19T14:52:08.675Z,10.30
2022-12-19T14:54:00.624Z,11.57
2022-12-19T14:54:03.654Z,10.65
2022-12-19T14:54:04.129Z,11.18
2022-12-19T14:54:21.095Z,11.57
2022-12-19T14:54:41.911Z,11.52
2022-12-19T14:56:12.351Z,10.73
2022-12-19T14:57:06.116Z,10.88
2022-12-19T14:58:56.294Z,10.80
2022-12-19T14:59:35.310Z,11.95
2022-12-19T15:01:09.001Z,11.63
2022-12-19T15:02:30.625Z,10.65
2022-12-19T15:03:52.473Z,10.77
2022-12-19T15:05:16.836Z,11.07
2022-12-19T15:07:05.954Z,11.35
2022-12-19T15:07:49.849Z,11.25
2022-12-19T15:10:58.250Z,10.95
2022-12-19T15:11:09.163Z,10.90
2022-12-19T15:14:46.784Z,11.13
2022-12-19T15:14:54.060Z,11.65
2022-12-19T15:15:05.164Z,10.45
2022-12-19T15:16:23.945Z,11.30
2022-12-19T15:17:29.205Z,11.52